createdAt,value
2022-11-12T00:00:54.503Z,16.13
2022-11-12T00:03:21.983Z,19.20
2022-11-12T00:05:50.691Z,15.07
2022-11-12T00:08:18.187Z,19.40
2022-11-12T00:10:45.462Z,15.73
2022-11-12T00:13:14.211Z,18.03
2022-11-12T00:15:41.039Z,21.87
2022-11-12T00:18:08.026Z,14.83
2022-11-12T00:20:35.348Z,19.37
2022-11-12T00:23:02.330Z,17.90
2022-11-12T00:25:29.354Z,17.80
2022-11-12T00:28:02.654Z,18.13
2022-11-12T00:30:30.005Z,15.03
2022-11-12T00:32:57.048Z,15.50
2022-11-12T00:35:23.750Z,16.83
2022-11-12T00:37:55.254Z,15.57
2022-11-12T00:40:22.137Z,21.13
2022-11-12T00:42:51.162Z,17.33
2022-11-12T00:45:18.896Z,17.73
2022-11-12T00:47:45.855Z,18.37
2022-11-12T00:50:12.727Z,18.57
2022-11-12T00:52:39.588Z,17.30
2022-11-12T00:55:06.605Z,16.33
2022-11-12T00:57:33.382Z,17.53
2022-11-12T01:00:00.068Z,19.70
2022-11-12T01:02:26.809Z,16.33
2022-11-12T01:04:53.581Z,17.00
2022-11-12T01:07:20.441Z,18.53
2022-11-12T01:09:47.191Z,18.60
2022-11-12T01:12:13.954Z,18.87
2022-11-12T01:14:40.837Z,20.20
2022-11-12T01:17:07.659Z,18.43
2022-11-12T01:19:34.483Z,18.23
2022-11-12T01:22:01.221Z,18.50
2022-11-12T01:24:27.921Z,18.43
2022-11-12T01:26:54.667Z,18.00
2022-11-12T01:29:21.433Z,14.60
2022-11-12T01:31:48.152Z,16.97
2022-11-12T01:34:14.893Z,19.77
2022-11-12T01:36:42.956Z,17.03
2022-11-12T01:39:10.136Z,16.23
2022-11-12T01:41:39.358Z,19.73
2022-11-12T01:44:15.287Z,15.33
2022-11-12T01:46:57.057Z,17.93
2022-11-12T01:49:40.095Z,16.73
2022-11-12T01:52:38.842Z,17.33
2022-11-12T01:55:09.826Z,19.20
2022-11-12T01:58:05.193Z,16.47
2022-11-12T02:00:32.064Z,17.23
2022-11-12T02:03:00.827Z,14.30
2022-11-12T02:05:29.834Z,16.23
2022-11-12T02:07:58.734Z,14.47
2022-11-12T02:10:26.445Z,14.20
2022-11-12T02:13:12.892Z,16.60
2022-11-12T02:15:41.579Z,15.40
2022-11-12T02:18:09.083Z,15.50
2022-11-12T02:20:37.908Z,15.37
2022-11-12T02:23:07.100Z,17.17
2022-11-12T02:25:34.821Z,15.67
2022-11-12T02:28:04.938Z,18.47
2022-11-12T02:30:36.086Z,17.57
2022-11-12T02:33:03.935Z,13.67
2022-11-12T02:35:31.450Z,16.83
2022-11-12T02:37:58.702Z,13.50
2022-11-12T02:40:25.671Z,20.00
2022-11-12T02:42:52.426Z,17.10
2022-11-12T02:45:19.763Z,16.50
2022-11-12T02:47:46.926Z,15.70
2022-11-12T02:50:13.749Z,18.83
2022-11-12T02:52:40.471Z,19.57
2022-11-12T02:55:09.414Z,22.10
2022-11-12T02:57:37.540Z,16.87
2022-11-12T03:00:13.285Z,17.63
2022-11-12T03:02:42.818Z,18.77
2022-11-12T03:05:13.036Z,19.47
2022-11-12T03:07:39.984Z,14.67
2022-11-12T03:10:07.372Z,16.57
2022-11-12T03:12:34.242Z,14.23
2022-11-12T03:15:01.091Z,21.30
2022-11-12T03:17:27.856Z,19.83
2022-11-12T03:19:54.602Z,18.17
2022-11-12T03:22:21.352Z,16.47
2022-11-12T03:24:48.108Z,16.37
2022-11-12T03:27:15.148Z,14.07
2022-11-12T03:29:41.973Z,18.17
2022-11-12T03:32:08.752Z,15.80
2022-11-12T03:34:35.465Z,15.60
2022-11-12T03:37:03.091Z,15.50
2022-11-12T03:39:29.851Z,17.10
2022-11-12T03:41:56.675Z,18.63
2022-11-12T03:44:23.426Z,15.03
2022-11-12T03:46:50.074Z,15.97
2022-11-12T03:49:16.819Z,17.37
2022-11-12T03:51:43.547Z,15.03
2022-11-12T03:54:10.343Z,15.93
2022-11-12T03:56:37.069Z,13.50
2022-11-12T03:59:04.246Z,14.20
2022-11-12T04:01:31.762Z,15.47
2022-11-12T04:03:58.664Z,14.30
2022-11-12T04:06:44.081Z,15.23
2022-11-12T04:09:10.823Z,16.07
2022-11-12T04:11:37.508Z,15.80
2022-11-12T04:14:04.564Z,15.70
2022-11-12T04:16:49.886Z,14.33
2022-11-12T04:19:35.262Z,15.83
2022-11-12T04:22:04.974Z,13.47
2022-11-12T04:24:58.700Z,13.23
2022-11-12T04:27:26.724Z,13.20
2022-11-12T04:30:12.613Z,15.50
2022-11-12T04:32:54.637Z,14.23
2022-11-12T04:35:25.540Z,13.13
2022-11-12T04:37:52.731Z,14.53
2022-11-12T04:40:40.614Z,14.03
2022-11-12T04:43:28.938Z,13.83
2022-11-12T04:45:56.179Z,16.60
2022-11-12T04:48:25.616Z,13.43
2022-11-12T04:51:02.278Z,13.93
2022-11-12T04:53:30.031Z,12.83
2022-11-12T04:55:58.613Z,12.23
2022-11-12T04:58:25.738Z,11.37
2022-11-12T05:00:52.985Z,12.27
2022-11-12T05:03:19.827Z,12.07
2022-11-12T05:05:46.523Z,12.30
2022-11-12T05:08:13.273Z,11.63
2022-11-12T05:10:40.000Z,13.30
2022-11-12T05:13:06.725Z,11.60
2022-11-12T05:15:33.457Z,12.27
2022-11-12T05:18:00.246Z,11.50
2022-11-12T05:20:26.997Z,14.97
2022-11-12T05:23:06.050Z,9.87
2022-11-12T05:25:35.424Z,14.17
2022-11-12T05:28:02.131Z,12.77
2022-11-12T05:30:28.855Z,10.47
2022-11-12T05:32:55.560Z,9.57
2022-11-12T05:35:22.395Z,10.73
2022-11-12T05:37:49.057Z,10.00
2022-11-12T05:40:15.790Z,10.87
2022-11-12T05:42:42.538Z,9.77
2022-11-12T05:45:09.542Z,10.90
2022-11-12T05:47:36.238Z,10.17
2022-11-12T05:50:03.265Z,12.93
2022-11-12T05:52:29.945Z,12.00
2022-11-12T05:54:56.696Z,10.40
2022-11-12T05:57:23.378Z,8.50
2022-11-12T05:59:50.075Z,13.07
2022-11-12T06:02:16.874Z,10.63
2022-11-12T06:04:43.660Z,11.27
2022-11-12T06:07:10.359Z,15.77
2022-11-12T06:09:37.189Z,11.23
2022-11-12T06:12:06.805Z,11.10
2022-11-12T06:14:33.511Z,10.50
2022-11-12T06:17:00.240Z,11.80
2022-11-12T06:19:26.937Z,10.23
2022-11-12T06:21:53.661Z,9.87
2022-11-12T06:24:20.588Z,10.10
2022-11-12T06:26:47.330Z,8.33
2022-11-12T06:29:14.077Z,10.40
2022-11-12T06:31:40.815Z,10.10
2022-11-12T06:34:07.643Z,9.77
2022-11-12T06:36:35.152Z,9.63
2022-11-12T06:39:01.950Z,9.03
2022-11-12T06:41:28.713Z,13.73
2022-11-12T06:43:55.459Z,11.03
2022-11-12T06:46:22.200Z,12.57
2022-11-12T06:48:48.965Z,10.83
2022-11-12T06:51:20.779Z,14.37
2022-11-12T06:53:48.197Z,11.27
2022-11-12T06:56:15.741Z,10.87
2022-11-12T06:58:42.627Z,8.30
2022-11-12T07:01:12.052Z,11.37
2022-11-12T07:03:40.075Z,10.33
2022-11-12T07:06:12.206Z,12.43
2022-11-12T07:08:39.693Z,9.67
2022-11-12T07:11:07.178Z,8.20
2022-11-12T07:13:35.456Z,10.97
2022-11-12T07:16:02.967Z,12.07
2022-11-12T07:18:31.029Z,11.60
2022-11-12T07:21:02.762Z,8.77
2022-11-12T07:23:32.394Z,11.47
2022-11-12T07:26:04.869Z,10.23
2022-11-12T07:28:31.771Z,9.80
2022-11-12T07:31:00.907Z,9.93
2022-11-12T07:33:28.435Z,9.37
2022-11-12T07:36:00.316Z,10.00
2022-11-12T07:38:28.871Z,11.97
2022-11-12T07:41:00.369Z,11.10
2022-11-12T07:43:28.852Z,8.40
2022-11-12T07:45:59.126Z,7.67
2022-11-12T07:48:26.681Z,11.30
2022-11-12T07:50:58.906Z,10.37
2022-11-12T07:53:26.023Z,10.07
2022-11-12T07:56:01.073Z,11.70
2022-11-12T07:58:30.194Z,9.60
2022-11-12T08:00:57.111Z,11.33
2022-11-12T08:03:24.206Z,11.77
2022-11-12T08:05:50.980Z,9.17
2022-11-12T08:08:17.801Z,12.60
2022-11-12T08:10:44.563Z,10.73
2022-11-12T08:13:11.590Z,10.90
2022-11-12T08:15:38.370Z,8.70
2022-11-12T08:18:05.216Z,9.97
2022-11-12T08:20:32.005Z,9.03
2022-11-12T08:23:01.978Z,11.27
2022-11-12T08:25:28.888Z,10.77
2022-11-12T08:27:59.446Z,8.30
2022-11-12T08:30:27.555Z,11.40
2022-11-12T08:33:05.063Z,9.67
2022-11-12T08:35:33.777Z,9.57
2022-11-12T08:38:02.942Z,10.93
2022-11-12T08:40:31.374Z,14.83
2022-11-12T08:43:03.893Z,12.90
2022-11-12T08:45:33.105Z,15.13
2022-11-12T08:48:01.839Z,15.10
2022-11-12T08:50:29.279Z,18.97
2022-11-12T08:53:04.500Z,15.60
2022-11-12T08:55:33.402Z,16.10
2022-11-12T08:58:03.937Z,13.43
2022-11-12T09:00:44.395Z,17.33
2022-11-12T09:03:17.280Z,12.90
2022-11-12T09:05:44.132Z,16.30
2022-11-12T09:08:14.418Z,13.80
2022-11-12T09:10:41.462Z,15.33
2022-11-12T09:13:08.637Z,16.83
2022-11-12T09:15:38.309Z,13.13
2022-11-12T09:18:08.382Z,14.27
2022-11-12T09:20:35.381Z,9.30
2022-11-12T09:23:15.928Z,12.57
2022-11-12T09:25:43.116Z,13.67
2022-11-12T09:28:13.065Z,10.27
2022-11-12T09:30:43.504Z,10.83
2022-11-12T09:33:10.295Z,11.43
2022-11-12T09:35:37.067Z,11.57
2022-11-12T09:38:03.887Z,11.57
2022-11-12T09:40:51.494Z,9.50
2022-11-12T09:43:34.613Z,10.97
2022-11-12T09:46:32.080Z,9.30
2022-11-12T09:49:16.307Z,9.87
2022-11-12T09:51:49.594Z,10.30
2022-11-12T09:54:22.400Z,9.43
2022-11-12T09:56:50.373Z,8.63
2022-11-12T09:59:17.557Z,10.27
2022-11-12T10:01:53.807Z,10.43
2022-11-12T10:04:55.725Z,9.20
2022-11-12T10:07:41.375Z,12.53
2022-11-12T10:10:33.181Z,9.43
2022-11-12T10:13:34.968Z,9.83
2022-11-12T10:16:36.984Z,10.10
2022-11-12T10:19:14.961Z,11.53
2022-11-12T10:22:00.222Z,9.27
2022-11-12T10:24:34.218Z,9.10
2022-11-12T10:27:02.603Z,7.50
2022-11-12T10:29:47.618Z,7.53
2022-11-12T10:32:16.308Z,8.80
2022-11-12T10:34:43.149Z,9.73
2022-11-12T10:37:42.584Z,7.27
2022-11-12T10:40:21.889Z,7.73
2022-11-12T10:43:00.415Z,9.27
2022-11-12T10:45:27.637Z,10.73
2022-11-12T10:47:54.539Z,8.10
2022-11-12T10:50:41.545Z,8.17
2022-11-12T10:53:11.689Z,7.47
2022-11-12T10:55:58.150Z,7.20
2022-11-12T10:58:25.352Z,9.93
2022-11-12T11:01:01.815Z,8.53
2022-11-12T11:03:34.926Z,9.53
2022-11-12T11:06:27.864Z,8.47
2022-11-12T11:09:17.805Z,6.73
2022-11-12T11:11:52.392Z,9.53
2022-11-12T11:14:40.605Z,6.40
2022-11-12T11:17:18.365Z,10.43
2022-11-12T11:19:45.207Z,8.23
2022-11-12T11:22:28.612Z,8.37
2022-11-12T11:25:27.980Z,7.77
2022-11-12T11:28:19.224Z,9.73
2022-11-12T11:30:58.404Z,10.93
2022-11-12T11:33:52.235Z,10.10
2022-11-12T11:36:28.117Z,10.20
2022-11-12T11:39:02.898Z,11.73
2022-11-12T11:41:44.832Z,10.90
2022-11-12T11:44:30.630Z,10.17
2022-11-12T11:47:12.654Z,8.93
2022-11-12T11:49:39.352Z,8.63
2022-11-12T11:52:38.272Z,9.67
2022-11-12T11:55:14.698Z,10.97
2022-11-12T11:58:28.983Z,9.83
2022-11-12T12:01:12.082Z,9.60
2022-11-12T12:04:00.394Z,10.20
2022-11-12T12:06:30.333Z,10.10
2022-11-12T12:09:24.953Z,10.17
2022-11-12T12:12:05.617Z,11.17
2022-11-12T12:14:39.025Z,9.73
2022-11-12T12:17:27.815Z,9.30
2022-11-12T12:20:09.285Z,10.57
2022-11-12T12:22:46.820Z,9.80
2022-11-12T12:25:23.815Z,10.63
2022-11-12T12:28:21.341Z,13.93
2022-11-12T12:30:52.643Z,14.30
2022-11-12T12:33:30.474Z,13.37
2022-11-12T12:36:08.364Z,15.07
2022-11-12T12:38:59.997Z,15.30
2022-11-12T12:41:32.880Z,14.10
2022-11-12T12:44:05.343Z,12.53
2022-11-12T12:46:38.853Z,11.47
2022-11-12T12:49:07.489Z,9.63
2022-11-12T12:51:35.780Z,11.67
2022-11-12T12:54:02.624Z,9.50
2022-11-12T12:56:32.110Z,10.77
2022-11-12T12:59:03.806Z,10.97
2022-11-12T13:01:35.728Z,10.40
2022-11-12T13:04:08.817Z,10.83
2022-11-12T13:06:46.314Z,13.13
2022-11-12T13:09:13.161Z,11.17
2022-11-12T13:12:01.386Z,12.23
2022-11-12T13:14:37.115Z,10.97
2022-11-12T13:17:11.800Z,9.40
2022-11-12T13:19:53.626Z,11.17
2022-11-12T13:22:20.319Z,10.03
2022-11-12T13:25:05.567Z,11.13
2022-11-12T13:27:44.747Z,12.90
2022-11-12T13:30:14.306Z,10.17
2022-11-12T13:32:48.484Z,9.40
2022-11-12T13:35:20.861Z,9.13
2022-11-12T13:37:50.469Z,11.53
2022-11-12T13:40:37.478Z,8.93
2022-11-12T13:43:27.580Z,13.40
2022-11-12T13:46:00.571Z,10.00
2022-11-12T13:48:29.519Z,11.37
2022-11-12T13:51:01.572Z,10.73
2022-11-12T13:53:31.531Z,10.27
2022-11-12T13:55:58.410Z,11.53
2022-11-12T13:58:33.438Z,10.10
2022-11-12T14:01:02.313Z,10.37
2022-11-12T14:03:53.432Z,11.50
2022-11-12T14:06:28.741Z,10.60
2022-11-12T14:09:10.803Z,10.43
2022-11-12T14:11:52.106Z,14.00
2022-11-12T14:14:23.813Z,13.07
2022-11-12T14:16:55.795Z,10.87
2022-11-12T14:19:49.140Z,12.00
2022-11-12T14:22:18.720Z,13.03
2022-11-12T14:24:48.159Z,11.90
2022-11-12T14:27:30.370Z,12.93
2022-11-12T14:30:17.867Z,10.23
2022-11-12T14:32:46.779Z,11.43
2022-11-12T14:35:18.398Z,12.30
2022-11-12T14:37:51.580Z,12.87
2022-11-12T14:40:19.825Z,12.93
2022-11-12T14:42:46.783Z,13.07
2022-11-12T14:45:18.796Z,12.43
2022-11-12T14:47:47.966Z,12.77
2022-11-12T14:50:28.995Z,10.30
2022-11-12T14:53:08.275Z,12.87
2022-11-12T14:55:37.297Z,15.37
2022-11-12T14:58:04.896Z,14.80
2022-11-12T15:00:31.976Z,14.67
2022-11-12T15:03:01.944Z,15.57
2022-11-12T15:05:28.982Z,15.10
2022-11-12T15:08:05.144Z,15.63
2022-11-12T15:10:39.413Z,13.87
2022-11-12T15:13:12.570Z,14.33
2022-11-12T15:15:50.135Z,17.70
2022-11-12T15:18:24.206Z,16.27
2022-11-12T15:21:13.959Z,16.50
2022-11-12T15:23:52.655Z,13.87
2022-11-12T15:26:41.798Z,14.10
2022-11-12T15:29:11.663Z,14.80
2022-11-12T15:32:13.532Z,15.37
2022-11-12T15:34:40.762Z,15.57
2022-11-12T15:37:22.383Z,16.20
2022-11-12T15:39:57.309Z,17.97
2022-11-12T15:42:37.988Z,16.60
2022-11-12T15:45:10.177Z,17.40
2022-11-12T15:47:36.971Z,18.30
2022-11-12T15:50:18.246Z,18.70
2022-11-12T15:52:45.677Z,15.20
2022-11-12T15:55:13.285Z,17.47
2022-11-12T15:57:49.124Z,18.43
2022-11-12T16:00:19.835Z,15.87
2022-11-12T16:02:52.017Z,13.37
2022-11-12T16:05:19.341Z,13.90
2022-11-12T16:07:46.362Z,15.60
2022-11-12T16:10:15.014Z,13.67
2022-11-12T16:12:42.968Z,16.77
2022-11-12T16:15:14.973Z,15.73
2022-11-12T16:17:42.158Z,17.23
2022-11-12T16:20:18.549Z,14.60
2022-11-12T16:22:45.368Z,19.07
2022-11-12T16:25:12.114Z,15.00
2022-11-12T16:27:39.835Z,14.37
2022-11-12T16:30:14.488Z,15.87
2022-11-12T16:32:41.337Z,16.20
2022-11-12T16:35:08.504Z,14.37
2022-11-12T16:37:38.226Z,16.30
2022-11-12T16:40:14.321Z,14.80
2022-11-12T16:42:45.877Z,19.47
2022-11-12T16:45:17.769Z,16.87
2022-11-12T16:47:50.144Z,17.90
2022-11-12T16:50:21.608Z,15.87
2022-11-12T16:52:49.102Z,17.67
2022-11-12T16:55:16.360Z,17.07
2022-11-12T16:57:43.402Z,15.00
2022-11-12T17:00:15.397Z,20.40
2022-11-12T17:02:45.360Z,19.17
2022-11-12T17:05:15.051Z,16.40
2022-11-12T17:07:42.070Z,16.83
2022-11-12T17:10:09.216Z,19.00
2022-11-12T17:12:35.897Z,16.80
2022-11-12T17:15:02.709Z,21.07
2022-11-12T17:17:29.484Z,16.20
2022-11-12T17:19:56.338Z,15.47
2022-11-12T17:22:24.007Z,22.23
2022-11-12T17:24:50.749Z,17.70
2022-11-12T17:27:17.960Z,22.17
2022-11-12T17:29:44.743Z,19.17
2022-11-12T17:32:11.489Z,16.50
2022-11-12T17:34:38.263Z,18.90
2022-11-12T17:37:05.114Z,18.93
2022-11-12T17:39:31.939Z,19.53
2022-11-12T17:41:58.691Z,17.70
2022-11-12T17:44:25.536Z,20.63
2022-11-12T17:46:52.301Z,19.87
2022-11-12T17:49:19.212Z,20.87
2022-11-12T17:51:45.986Z,17.03
2022-11-12T17:54:12.727Z,17.77
2022-11-12T17:56:39.528Z,18.30
2022-11-12T17:59:06.262Z,19.70
2022-11-12T18:01:34.501Z,17.73
2022-11-12T18:04:01.706Z,20.13
2022-11-12T18:06:34.139Z,16.00
2022-11-12T18:09:12.595Z,19.03
2022-11-12T18:11:51.004Z,17.77
2022-11-12T18:14:17.705Z,20.57
2022-11-12T18:16:45.032Z,21.70
2022-11-12T18:19:12.813Z,21.47
2022-11-12T18:21:40.401Z,21.83
2022-11-12T18:24:12.158Z,21.53
2022-11-12T18:26:39.339Z,20.00
2022-11-12T18:29:07.354Z,25.33
2022-11-12T18:31:34.179Z,21.73
2022-11-12T18:34:00.913Z,20.90
2022-11-12T18:36:28.498Z,19.37
2022-11-12T18:38:55.647Z,17.63
2022-11-12T18:41:25.884Z,17.17
2022-11-12T18:43:56.843Z,17.87
2022-11-12T18:46:23.837Z,15.17
2022-11-12T18:48:50.847Z,15.57
2022-11-12T18:51:19.228Z,16.20
2022-11-12T18:53:46.225Z,20.13
2022-11-12T18:56:18.095Z,24.27
2022-11-12T18:58:45.290Z,36.37
2022-11-12T19:01:17.833Z,208.67
2022-11-12T19:03:44.903Z,265.20
2022-11-12T19:06:13.810Z,44.00
2022-11-12T19:08:41.542Z,33.07
2022-11-12T19:11:11.065Z,30.37
2022-11-12T19:13:38.654Z,67.13
2022-11-12T19:16:08.346Z,55.87
2022-11-12T19:18:35.238Z,124.97
2022-11-12T19:21:28.286Z,103.87
2022-11-12T19:23:56.975Z,32.50
2022-11-12T19:26:24.175Z,21.03
2022-11-12T19:28:51.067Z,18.23
2022-11-12T19:31:23.563Z,16.43
2022-11-12T19:33:51.330Z,56.80
2022-11-12T19:36:21.902Z,70.33
2022-11-12T19:38:56.699Z,23.37
2022-11-12T19:41:24.226Z,20.53
2022-11-12T19:43:51.827Z,18.17
2022-11-12T19:46:19.248Z,17.63
2022-11-12T19:48:46.138Z,46.43
2022-11-12T19:51:13.936Z,75.80
2022-11-12T19:53:44.539Z,47.10
2022-11-12T19:56:14.060Z,36.93
2022-11-12T19:58:45.181Z,24.53
2022-11-12T20:01:14.284Z,27.53
2022-11-12T20:03:41.520Z,26.00
2022-11-12T20:06:11.022Z,24.30
2022-11-12T20:08:38.399Z,27.70
2022-11-12T20:11:05.626Z,24.40
2022-11-12T20:13:32.910Z,19.23
2022-11-12T20:15:59.620Z,21.20
2022-11-12T20:18:26.782Z,24.17
2022-11-12T20:20:56.725Z,23.07
2022-11-12T20:23:24.587Z,21.73
2022-11-12T20:25:52.618Z,16.87
2022-11-12T20:28:19.566Z,16.43
2022-11-12T20:30:46.355Z,15.10
2022-11-12T20:33:14.161Z,14.43
2022-11-12T20:35:40.973Z,15.63
2022-11-12T20:38:08.042Z,15.80
2022-11-12T20:40:34.901Z,16.97
2022-11-12T20:43:01.621Z,18.20
2022-11-12T20:45:28.529Z,17.90
2022-11-12T20:47:56.558Z,17.60
2022-11-12T20:50:23.813Z,17.27
2022-11-12T20:52:50.750Z,14.40
2022-11-12T20:55:18.221Z,14.87
2022-11-12T20:57:45.024Z,15.57
2022-11-12T21:00:14.649Z,13.47
2022-11-12T21:02:42.785Z,13.33
2022-11-12T21:05:09.571Z,15.83
2022-11-12T21:07:36.429Z,17.60
2022-11-12T21:10:04.065Z,14.00
2022-11-12T21:12:31.244Z,11.50
2022-11-12T21:14:58.065Z,13.07
2022-11-12T21:17:24.875Z,14.13
2022-11-12T21:19:51.751Z,12.27
2022-11-12T21:22:18.743Z,14.03
2022-11-12T21:24:45.540Z,14.97
2022-11-12T21:27:12.313Z,12.93
2022-11-12T21:29:39.118Z,14.47
2022-11-12T21:32:06.372Z,16.37
2022-11-12T21:34:33.239Z,14.17
2022-11-12T21:37:01.081Z,12.80
2022-11-12T21:39:27.882Z,12.23
2022-11-12T21:41:54.982Z,11.77
2022-11-12T21:44:21.754Z,14.33
2022-11-12T21:46:48.557Z,12.43
2022-11-12T21:49:15.238Z,15.43
2022-11-12T21:51:41.981Z,16.93
2022-11-12T21:54:15.143Z,16.00
2022-11-12T21:56:42.091Z,13.60
2022-11-12T21:59:08.893Z,12.47
2022-11-12T22:01:35.709Z,16.93
2022-11-12T22:04:06.486Z,12.33
2022-11-12T22:06:36.679Z,13.40
2022-11-12T22:09:05.104Z,12.33
2022-11-12T22:11:31.866Z,11.83
2022-11-12T22:13:58.634Z,14.30
2022-11-12T22:16:27.415Z,11.07
2022-11-12T22:18:55.349Z,17.00
2022-11-12T22:21:34.080Z,15.50
2022-11-12T22:24:03.978Z,15.27
2022-11-12T22:26:31.076Z,13.57
2022-11-12T22:28:59.202Z,12.00
2022-11-12T22:31:31.776Z,14.37
2022-11-12T22:34:00.694Z,13.03
2022-11-12T22:36:29.925Z,12.23
2022-11-12T22:38:57.088Z,23.70
2022-11-12T22:41:26.289Z,22.80
2022-11-12T22:43:56.143Z,16.63
2022-11-12T22:46:25.208Z,17.10
2022-11-12T22:48:52.272Z,17.33
2022-11-12T22:51:22.061Z,15.93
2022-11-12T22:53:53.972Z,13.40
2022-11-12T22:56:21.090Z,16.00
2022-11-12T22:58:48.214Z,14.50
2022-11-12T23:01:26.933Z,11.10
2022-11-12T23:04:00.805Z,16.07
2022-11-12T23:06:28.847Z,16.17
2022-11-12T23:08:57.249Z,18.43
2022-11-12T23:11:26.196Z,18.07
2022-11-12T23:13:54.720Z,12.30
2022-11-12T23:16:29.995Z,15.70
2022-11-12T23:18:57.378Z,13.60
2022-11-12T23:21:26.974Z,19.10
2022-11-12T23:23:53.801Z,13.63
2022-11-12T23:26:23.077Z,13.90
2022-11-12T23:28:50.908Z,15.07
2022-11-12T23:31:23.104Z,13.17
2022-11-12T23:33:52.145Z,13.40
2022-11-12T23:36:19.647Z,11.80
2022-11-12T23:38:46.965Z,17.27
2022-11-12T23:41:17.015Z,16.60
2022-11-12T23:43:44.218Z,12.47
2022-11-12T23:46:11.823Z,10.30
2022-11-12T23:48:38.711Z,13.63
2022-11-12T23:51:12.495Z,13.10
2022-11-12T23:53:40.051Z,15.67
2022-11-12T23:56:09.486Z,11.27
2022-11-12T23:58:37.361Z,11.53
